Terminal Aerodrome Forecast
Issued by NWS

Home | Current Version | Previous Version | Text Only | Print | Product List | Glossary On
Versions: 1 2 3 4 5 6 7 8 9 10 11 12 13 14 15 16 17 18 19 20 21 22 23 24 25 26
000
FTUS46 KLOX 271306 AAA
TAFOXR
TAF AMD
KOXR 271306Z 2713/2812 VRB03KT P6SM OVC025
     FM271900 24008KT P6SM SCT025
     FM272100 26012KT P6SM FEW015
     FM280400 27006KT P6SM BKN008
     FM280700 VRB03KT P6SM BKN010=

USA.gov is the U.S. government's official web portal to all federal, state and local government web resources and services.